sensor_id;sensor_type;location;lat;lon;timestamp;temperature;humidity
17565;DHT22;62994;52.126;5.596;2023-06-26T00:00:27;27.20;99.90
17565;DHT22;62994;52.126;5.596;2023-06-26T00:02:54;27.20;99.90
17565;DHT22;62994;52.126;5.596;2023-06-26T00:05:21;27.10;99.90
17565;DHT22;62994;52.126;5.596;2023-06-26T00:07:48;27.00;99.90
17565;DHT22;62994;52.126;5.596;2023-06-26T00:10:15;27.00;99.90
17565;DHT22;62994;52.126;5.596;2023-06-26T00:12:42;26.90;99.90
17565;DHT22;62994;52.126;5.596;2023-06-26T00:15:09;26.90;99.90
17565;DHT22;62994;52.126;5.596;2023-06-26T00:17:38;26.90;99.90
17565;DHT22;62994;52.126;5.596;2023-06-26T00:20:06;26.90;99.90
17565;DHT22;62994;52.126;5.596;2023-06-26T00:22:34;26.90;99.90
17565;DHT22;62994;52.126;5.596;2023-06-26T00:25:01;26.90;99.90
17565;DHT22;62994;52.126;5.596;2023-06-26T00:27:28;26.90;99.90
17565;DHT22;62994;52.126;5.596;2023-06-26T00:29:55;26.80;99.90
17565;DHT22;62994;52.126;5.596;2023-06-26T00:32:22;26.80;99.90
17565;DHT22;62994;52.126;5.596;2023-06-26T00:34:51;26.80;99.90
17565;DHT22;62994;52.126;5.596;2023-06-26T00:37:18;26.80;99.90
17565;DHT22;62994;52.126;5.596;2023-06-26T00:39:47;26.80;99.90
17565;DHT22;62994;52.126;5.596;2023-06-26T00:42:14;26.80;99.90
17565;DHT22;62994;52.126;5.596;2023-06-26T00:44:41;26.80;99.90
17565;DHT22;62994;52.126;5.596;2023-06-26T00:47:08;26.80;99.90
17565;DHT22;62994;52.126;5.596;2023-06-26T00:49:36;26.70;99.90
17565;DHT22;62994;52.126;5.596;2023-06-26T00:52:05;26.70;99.90
17565;DHT22;62994;52.126;5.596;2023-06-26T00:54:32;26.70;99.90
17565;DHT22;62994;52.126;5.596;2023-06-26T00:56:59;26.60;99.90
17565;DHT22;62994;52.126;5.596;2023-06-26T00:59:26;26.70;99.90
17565;DHT22;62994;52.126;5.596;2023-06-26T01:01:53;26.60;99.90
17565;DHT22;62994;52.126;5.596;2023-06-26T01:04:20;26.60;99.90
17565;DHT22;62994;52.126;5.596;2023-06-26T01:06:54;26.60;99.90
17565;DHT22;62994;52.126;5.596;2023-06-26T01:09:23;26.60;99.90
17565;DHT22;62994;52.126;5.596;2023-06-26T01:11:50;26.50;99.90
17565;DHT22;62994;52.126;5.596;2023-06-26T01:14:18;26.50;99.90
17565;DHT22;62994;52.126;5.596;2023-06-26T01:16:45;26.50;99.90
17565;DHT22;62994;52.126;5.596;2023-06-26T01:19:18;26.50;99.90
17565;DHT22;62994;52.126;5.596;2023-06-26T01:21:54;26.50;99.90
17565;DHT22;62994;52.126;5.596;2023-06-26T01:24:25;26.40;99.90
17565;DHT22;62994;52.126;5.596;2023-06-26T01:26:56;26.40;99.90
17565;DHT22;62994;52.126;5.596;2023-06-26T01:29:24;26.40;99.90
17565;DHT22;62994;52.126;5.596;2023-06-26T01:31:52;26.30;99.90
17565;DHT22;62994;52.126;5.596;2023-06-26T01:34:19;26.30;99.90
17565;DHT22;62994;52.126;5.596;2023-06-26T01:36:47;26.20;99.90
17565;DHT22;62994;52.126;5.596;2023-06-26T01:39:17;26.10;99.90
17565;DHT22;62994;52.126;5.596;2023-06-26T01:41:44;26.10;99.90
17565;DHT22;62994;52.126;5.596;2023-06-26T01:44:20;25.90;99.90
17565;DHT22;62994;52.126;5.596;2023-06-26T01:46:59;25.90;99.90
17565;DHT22;62994;52.126;5.596;2023-06-26T01:49:35;25.70;99.90
17565;DHT22;62994;52.126;5.596;2023-06-26T01:52:08;25.70;99.90
17565;DHT22;62994;52.126;5.596;2023-06-26T01:54:46;25.60;99.90
17565;DHT22;62994;52.126;5.596;2023-06-26T01:57:14;25.50;99.90
17565;DHT22;62994;52.126;5.596;2023-06-26T01:59:44;25.50;99.90
17565;DHT22;62994;52.126;5.596;2023-06-26T02:02:14;25.50;99.90
17565;DHT22;62994;52.126;5.596;2023-06-26T02:04:41;25.40;99.90
17565;DHT22;62994;52.126;5.596;2023-06-26T02:07:08;25.40;99.90
17565;DHT22;62994;52.126;5.596;2023-06-26T02:09:36;25.30;99.90
17565;DHT22;62994;52.126;5.596;2023-06-26T02:12:04;25.30;99.90
17565;DHT22;62994;52.126;5.596;2023-06-26T02:14:31;25.30;99.90
17565;DHT22;62994;52.126;5.596;2023-06-26T02:16:59;25.20;99.90
17565;DHT22;62994;52.126;5.596;2023-06-26T02:19:26;25.20;99.90
17565;DHT22;62994;52.126;5.596;2023-06-26T02:21:53;25.20;99.90
17565;DHT22;62994;52.126;5.596;2023-06-26T02:24:21;25.20;99.90
17565;DHT22;62994;52.126;5.596;2023-06-26T02:26:48;25.10;99.90
17565;DHT22;62994;52.126;5.596;2023-06-26T02:29:15;25.10;99.90
17565;DHT22;62994;52.126;5.596;2023-06-26T02:31:42;25.10;99.90
17565;DHT22;62994;52.126;5.596;2023-06-26T02:34:11;25.00;99.90
17565;DHT22;62994;52.126;5.596;2023-06-26T02:36:38;25.00;99.90
17565;DHT22;62994;52.126;5.596;2023-06-26T02:39:05;24.90;99.90
17565;DHT22;62994;52.126;5.596;2023-06-26T02:41:32;24.90;99.90
17565;DHT22;62994;52.126;5.596;2023-06-26T02:43:59;24.80;99.90
17565;DHT22;62994;52.126;5.596;2023-06-26T02:46:26;24.80;99.90
17565;DHT22;62994;52.126;5.596;2023-06-26T02:48:53;24.70;99.90
17565;DHT22;62994;52.126;5.596;2023-06-26T02:51:21;24.70;99.90
17565;DHT22;62994;52.126;5.596;2023-06-26T02:53:48;24.70;99.90
17565;DHT22;62994;52.126;5.596;2023-06-26T02:56:15;24.60;99.90
17565;DHT22;62994;52.126;5.596;2023-06-26T02:58:42;24.50;99.90
17565;DHT22;62994;52.126;5.596;2023-06-26T03:01:09;24.50;99.90
17565;DHT22;62994;52.126;5.596;2023-06-26T03:03:36;24.50;99.90
17565;DHT22;62994;52.126;5.596;2023-06-26T03:06:06;24.40;99.90
17565;DHT22;62994;52.126;5.596;2023-06-26T03:08:37;24.40;99.90
17565;DHT22;62994;52.126;5.596;2023-06-26T03:11:04;24.40;99.90
17565;DHT22;62994;52.126;5.596;2023-06-26T03:13:32;24.40;99.90
17565;DHT22;62994;52.126;5.596;2023-06-26T03:15:59;24.30;99.90
17565;DHT22;62994;52.126;5.596;2023-06-26T03:18:26;24.30;99.90
17565;DHT22;62994;52.126;5.596;2023-06-26T03:20:54;24.20;99.90
17565;DHT22;62994;52.126;5.596;2023-06-26T03:23:21;24.10;99.90
17565;DHT22;62994;52.126;5.596;2023-06-26T03:25:50;24.10;99.90
17565;DHT22;62994;52.126;5.596;2023-06-26T03:28:17;24.20;99.90
17565;DHT22;62994;52.126;5.596;2023-06-26T03:30:44;24.10;99.90
17565;DHT22;62994;52.126;5.596;2023-06-26T03:33:11;24.10;99.90
17565;DHT22;62994;52.126;5.596;2023-06-26T03:35:38;24.10;99.90
17565;DHT22;62994;52.126;5.596;2023-06-26T03:38:05;24.00;99.90
17565;DHT22;62994;52.126;5.596;2023-06-26T03:40:32;24.00;99.90
17565;DHT22;62994;52.126;5.596;2023-06-26T03:43:00;24.00;99.90
17565;DHT22;62994;52.126;5.596;2023-06-26T03:45:28;23.90;99.90
17565;DHT22;62994;52.126;5.596;2023-06-26T03:47:55;23.90;99.90
17565;DHT22;62994;52.126;5.596;2023-06-26T03:50:22;23.90;99.90
17565;DHT22;62994;52.126;5.596;2023-06-26T03:52:49;23.90;99.90
17565;DHT22;62994;52.126;5.596;2023-06-26T03:55:17;23.80;99.90
17565;DHT22;62994;52.126;5.596;2023-06-26T03:57:44;23.90;99.90
17565;DHT22;62994;52.126;5.596;2023-06-26T04:00:14;23.80;99.90
17565;DHT22;62994;52.126;5.596;2023-06-26T04:02:41;23.80;99.90
17565;DHT22;62994;52.126;5.596;2023-06-26T04:05:08;23.80;99.90
17565;DHT22;62994;52.126;5.596;2023-06-26T04:07:36;23.70;99.90
17565;DHT22;62994;52.126;5.596;2023-06-26T04:10:04;23.70;99.90
17565;DHT22;62994;52.126;5.596;2023-06-26T04:12:31;23.70;99.90
17565;DHT22;62994;52.126;5.596;2023-06-26T04:14:58;23.70;99.90
17565;DHT22;62994;52.126;5.596;2023-06-26T04:17:27;23.60;99.90
17565;DHT22;62994;52.126;5.596;2023-06-26T04:19:54;23.70;99.90
17565;DHT22;62994;52.126;5.596;2023-06-26T04:22:21;23.60;99.90
17565;DHT22;62994;52.126;5.596;2023-06-26T04:24:48;23.60;99.90
17565;DHT22;62994;52.126;5.596;2023-06-26T04:27:15;23.60;99.90
17565;DHT22;62994;52.126;5.596;2023-06-26T04:29:43;23.40;99.90
17565;DHT22;62994;52.126;5.596;2023-06-26T04:32:10;23.40;99.90
17565;DHT22;62994;52.126;5.596;2023-06-26T04:34:38;23.40;99.90
17565;DHT22;62994;52.126;5.596;2023-06-26T04:37:06;23.40;99.90
17565;DHT22;62994;52.126;5.596;2023-06-26T04:39:35;23.40;99.90
17565;DHT22;62994;52.126;5.596;2023-06-26T04:42:04;23.40;99.90
17565;DHT22;62994;52.126;5.596;2023-06-26T04:44:32;23.40;99.90
17565;DHT22;62994;52.126;5.596;2023-06-26T04:46:59;23.40;99.90
17565;DHT22;62994;52.126;5.596;2023-06-26T04:49:26;23.40;99.90
17565;DHT22;62994;52.126;5.596;2023-06-26T04:51:56;23.40;99.90
17565;DHT22;62994;52.126;5.596;2023-06-26T04:54:26;23.50;99.90
17565;DHT22;62994;52.126;5.596;2023-06-26T04:56:53;23.50;99.90
17565;DHT22;62994;52.126;5.596;2023-06-26T04:59:20;23.50;99.90
17565;DHT22;62994;52.126;5.596;2023-06-26T05:01:47;23.50;99.90
17565;DHT22;62994;52.126;5.596;2023-06-26T05:04:14;23.50;99.90
17565;DHT22;62994;52.126;5.596;2023-06-26T05:06:42;23.40;99.90
17565;DHT22;62994;52.126;5.596;2023-06-26T05:09:10;23.40;99.90
17565;DHT22;62994;52.126;5.596;2023-06-26T05:11:37;23.40;99.90
17565;DHT22;62994;52.126;5.596;2023-06-26T05:14:04;23.40;99.90
17565;DHT22;62994;52.126;5.596;2023-06-26T05:16:33;23.40;99.90
17565;DHT22;62994;52.126;5.596;2023-06-26T05:19:01;23.30;99.90
17565;DHT22;62994;52.126;5.596;2023-06-26T05:21:28;23.30;99.90
17565;DHT22;62994;52.126;5.596;2023-06-26T05:23:56;23.30;99.90
17565;DHT22;62994;52.126;5.596;2023-06-26T05:26:26;23.30;99.90
17565;DHT22;62994;52.126;5.596;2023-06-26T05:28:54;23.30;99.90
17565;DHT22;62994;52.126;5.596;2023-06-26T05:31:21;23.30;99.90
17565;DHT22;62994;52.126;5.596;2023-06-26T05:33:49;23.30;99.90
17565;DHT22;62994;52.126;5.596;2023-06-26T05:36:16;23.30;99.90
17565;DHT22;62994;52.126;5.596;2023-06-26T05:38:45;23.30;99.90
17565;DHT22;62994;52.126;5.596;2023-06-26T05:41:14;23.30;99.90
17565;DHT22;62994;52.126;5.596;2023-06-26T05:43:43;23.30;99.90
17565;DHT22;62994;52.126;5.596;2023-06-26T05:46:09;23.30;99.90
17565;DHT22;62994;52.126;5.596;2023-06-26T05:48:37;23.40;99.90
17565;DHT22;62994;52.126;5.596;2023-06-26T05:51:05;23.40;99.90
17565;DHT22;62994;52.126;5.596;2023-06-26T05:53:32;23.40;99.90
17565;DHT22;62994;52.126;5.596;2023-06-26T05:56:00;23.50;99.90
17565;DHT22;62994;52.126;5.596;2023-06-26T05:58:27;23.50;99.90
17565;DHT22;62994;52.126;5.596;2023-06-26T06:00:56;23.50;99.90
17565;DHT22;62994;52.126;5.596;2023-06-26T06:03:23;23.60;99.90
17565;DHT22;62994;52.126;5.596;2023-06-26T06:05:50;23.60;99.90
17565;DHT22;62994;52.126;5.596;2023-06-26T06:08:17;23.60;99.90
17565;DHT22;62994;52.126;5.596;2023-06-26T06:10:44;23.70;99.90
17565;DHT22;62994;52.126;5.596;2023-06-26T06:13:11;23.70;99.90
17565;DHT22;62994;52.126;5.596;2023-06-26T06:15:38;23.80;99.90
17565;DHT22;62994;52.126;5.596;2023-06-26T06:18:07;23.80;99.90
17565;DHT22;62994;52.126;5.596;2023-06-26T06:20:34;23.90;99.90
17565;DHT22;62994;52.126;5.596;2023-06-26T06:23:01;23.80;99.90
17565;DHT22;62994;52.126;5.596;2023-06-26T06:25:28;23.80;99.90
17565;DHT22;62994;52.126;5.596;2023-06-26T06:27:55;23.90;99.90
17565;DHT22;62994;52.126;5.596;2023-06-26T06:30:22;23.90;99.90
17565;DHT22;62994;52.126;5.596;2023-06-26T06:32:49;24.00;99.90
17565;DHT22;62994;52.126;5.596;2023-06-26T06:35:19;24.00;99.90
17565;DHT22;62994;52.126;5.596;2023-06-26T06:37:46;24.10;99.90
17565;DHT22;62994;52.126;5.596;2023-06-26T06:40:14;24.10;99.90
17565;DHT22;62994;52.126;5.596;2023-06-26T06:42:41;24.20;99.90
17565;DHT22;62994;52.126;5.596;2023-06-26T06:45:09;24.20;99.90
17565;DHT22;62994;52.126;5.596;2023-06-26T06:47:36;24.30;99.90
17565;DHT22;62994;52.126;5.596;2023-06-26T06:50:03;24.30;99.90
17565;DHT22;62994;52.126;5.596;2023-06-26T06:52:36;24.30;99.90
17565;DHT22;62994;52.126;5.596;2023-06-26T06:55:04;24.30;99.90
17565;DHT22;62994;52.126;5.596;2023-06-26T06:57:34;24.40;99.90
17565;DHT22;62994;52.126;5.596;2023-06-26T07:00:04;24.40;99.90
17565;DHT22;62994;52.126;5.596;2023-06-26T07:02:34;24.40;99.90
17565;DHT22;62994;52.126;5.596;2023-06-26T07:05:02;24.50;99.90
17565;DHT22;62994;52.126;5.596;2023-06-26T07:07:31;24.60;99.90
17565;DHT22;62994;52.126;5.596;2023-06-26T07:10:00;24.70;99.90
17565;DHT22;62994;52.126;5.596;2023-06-26T07:12:28;24.80;99.90
17565;DHT22;62994;52.126;5.596;2023-06-26T07:14:55;24.80;99.90
17565;DHT22;62994;52.126;5.596;2023-06-26T07:17:22;24.80;99.90
17565;DHT22;62994;52.126;5.596;2023-06-26T07:19:50;24.90;99.90
17565;DHT22;62994;52.126;5.596;2023-06-26T07:22:17;24.90;99.90
17565;DHT22;62994;52.126;5.596;2023-06-26T07:24:46;24.90;99.90
17565;DHT22;62994;52.126;5.596;2023-06-26T07:27:15;25.00;99.90
17565;DHT22;62994;52.126;5.596;2023-06-26T07:29:43;25.00;99.90
17565;DHT22;62994;52.126;5.596;2023-06-26T07:32:10;25.00;99.90
17565;DHT22;62994;52.126;5.596;2023-06-26T07:34:37;25.20;99.90
17565;DHT22;62994;52.126;5.596;2023-06-26T07:37:04;25.20;99.90
17565;DHT22;62994;52.126;5.596;2023-06-26T07:39:32;25.30;99.90
17565;DHT22;62994;52.126;5.596;2023-06-26T07:41:59;25.30;99.90
17565;DHT22;62994;52.126;5.596;2023-06-26T07:44:27;25.30;99.90
17565;DHT22;62994;52.126;5.596;2023-06-26T07:46:54;25.40;99.90
17565;DHT22;62994;52.126;5.596;2023-06-26T07:49:21;25.50;99.90
17565;DHT22;62994;52.126;5.596;2023-06-26T07:51:48;25.60;99.90
17565;DHT22;62994;52.126;5.596;2023-06-26T07:54:15;25.70;99.90
17565;DHT22;62994;52.126;5.596;2023-06-26T07:56:56;25.60;99.90
17565;DHT22;62994;52.126;5.596;2023-06-26T07:59:25;25.80;99.90
17565;DHT22;62994;52.126;5.596;2023-06-26T08:01:56;25.70;99.90
17565;DHT22;62994;52.126;5.596;2023-06-26T08:04:25;25.70;99.90
17565;DHT22;62994;52.126;5.596;2023-06-26T08:06:58;25.70;99.90
17565;DHT22;62994;52.126;5.596;2023-06-26T08:09:32;25.80;99.90
17565;DHT22;62994;52.126;5.596;2023-06-26T08:12:21;25.90;99.90
17565;DHT22;62994;52.126;5.596;2023-06-26T08:14:53;26.00;99.90
17565;DHT22;62994;52.126;5.596;2023-06-26T08:17:34;26.10;99.90
17565;DHT22;62994;52.126;5.596;2023-06-26T08:20:31;26.20;99.90
17565;DHT22;62994;52.126;5.596;2023-06-26T08:23:05;26.30;99.90
17565;DHT22;62994;52.126;5.596;2023-06-26T08:25:40;26.30;99.90
17565;DHT22;62994;52.126;5.596;2023-06-26T08:28:09;26.30;99.90
17565;DHT22;62994;52.126;5.596;2023-06-26T08:30:46;26.30;99.90
17565;DHT22;62994;52.126;5.596;2023-06-26T08:33:21;26.40;99.90
17565;DHT22;62994;52.126;5.596;2023-06-26T08:35:50;26.40;99.90
17565;DHT22;62994;52.126;5.596;2023-06-26T08:38:25;26.50;99.90
17565;DHT22;62994;52.126;5.596;2023-06-26T08:40:55;26.60;99.90
17565;DHT22;62994;52.126;5.596;2023-06-26T08:43:46;26.70;99.90
17565;DHT22;62994;52.126;5.596;2023-06-26T08:46:18;26.90;99.90
17565;DHT22;62994;52.126;5.596;2023-06-26T08:49:11;27.00;99.90
17565;DHT22;62994;52.126;5.596;2023-06-26T08:51:52;27.10;99.90
17565;DHT22;62994;52.126;5.596;2023-06-26T08:54:49;27.20;99.90
17565;DHT22;62994;52.126;5.596;2023-06-26T08:57:23;27.30;99.90
17565;DHT22;62994;52.126;5.596;2023-06-26T08:59:58;27.30;99.90
17565;DHT22;62994;52.126;5.596;2023-06-26T09:02:42;27.20;99.90
17565;DHT22;62994;52.126;5.596;2023-06-26T09:05:35;27.10;99.90
17565;DHT22;62994;52.126;5.596;2023-06-26T09:08:11;27.30;99.90
17565;DHT22;62994;52.126;5.596;2023-06-26T09:10:48;27.20;99.90
17565;DHT22;62994;52.126;5.596;2023-06-26T09:13:18;27.20;99.90
17565;DHT22;62994;52.126;5.596;2023-06-26T09:16:13;27.30;99.90
17565;DHT22;62994;52.126;5.596;2023-06-26T09:18:56;27.20;99.90
17565;DHT22;62994;52.126;5.596;2023-06-26T09:22:12;27.20;99.90
17565;DHT22;62994;52.126;5.596;2023-06-26T09:24:46;27.10;99.90
17565;DHT22;62994;52.126;5.596;2023-06-26T09:27:41;27.20;99.90
17565;DHT22;62994;52.126;5.596;2023-06-26T09:30:37;27.30;99.90
17565;DHT22;62994;52.126;5.596;2023-06-26T09:33:16;27.40;99.90
17565;DHT22;62994;52.126;5.596;2023-06-26T09:39:09;27.70;99.90
17565;DHT22;62994;52.126;5.596;2023-06-26T09:41:43;27.80;99.90
17565;DHT22;62994;52.126;5.596;2023-06-26T09:44:11;27.90;99.90
17565;DHT22;62994;52.126;5.596;2023-06-26T09:46:54;27.90;99.90
17565;DHT22;62994;52.126;5.596;2023-06-26T09:49:23;28.00;99.90
17565;DHT22;62994;52.126;5.596;2023-06-26T09:51:59;28.00;99.90
17565;DHT22;62994;52.126;5.596;2023-06-26T09:54:38;28.00;99.90
17565;DHT22;62994;52.126;5.596;2023-06-26T09:57:11;28.20;99.90
17565;DHT22;62994;52.126;5.596;2023-06-26T09:59:44;28.20;99.90
17565;DHT22;62994;52.126;5.596;2023-06-26T10:02:14;28.20;99.90
17565;DHT22;62994;52.126;5.596;2023-06-26T10:05:24;28.40;99.90
17565;DHT22;62994;52.126;5.596;2023-06-26T10:10:59;28.70;99.90
17565;DHT22;62994;52.126;5.596;2023-06-26T10:13:42;28.70;99.90
17565;DHT22;62994;52.126;5.596;2023-06-26T10:16:28;28.60;99.90
17565;DHT22;62994;52.126;5.596;2023-06-26T10:22:09;28.90;99.90
17565;DHT22;62994;52.126;5.596;2023-06-26T10:25:22;29.00;99.90
17565;DHT22;62994;52.126;5.596;2023-06-26T10:28:11;29.10;99.90
17565;DHT22;62994;52.126;5.596;2023-06-26T10:31:01;29.10;99.90
17565;DHT22;62994;52.126;5.596;2023-06-26T10:33:44;29.10;99.90
17565;DHT22;62994;52.126;5.596;2023-06-26T10:36:58;29.10;99.90
17565;DHT22;62994;52.126;5.596;2023-06-26T10:39:54;29.10;99.90
17565;DHT22;62994;52.126;5.596;2023-06-26T10:42:50;29.30;99.90
17565;DHT22;62994;52.126;5.596;2023-06-26T10:45:42;29.30;99.90
17565;DHT22;62994;52.126;5.596;2023-06-26T10:48:35;29.40;99.90
17565;DHT22;62994;52.126;5.596;2023-06-26T10:51:20;29.50;99.90
17565;DHT22;62994;52.126;5.596;2023-06-26T10:54:01;29.60;99.90
17565;DHT22;62994;52.126;5.596;2023-06-26T10:57:12;29.50;99.90
17565;DHT22;62994;52.126;5.596;2023-06-26T11:00:11;29.70;99.90
17565;DHT22;62994;52.126;5.596;2023-06-26T11:02:56;29.60;99.90
17565;DHT22;62994;52.126;5.596;2023-06-26T11:05:29;29.80;99.90
17565;DHT22;62994;52.126;5.596;2023-06-26T11:08:06;29.90;99.90
17565;DHT22;62994;52.126;5.596;2023-06-26T11:10:52;30.10;99.90
17565;DHT22;62994;52.126;5.596;2023-06-26T11:13:21;30.20;99.90
17565;DHT22;62994;52.126;5.596;2023-06-26T11:16:11;30.40;99.90
17565;DHT22;62994;52.126;5.596;2023-06-26T11:18:42;30.50;99.90
17565;DHT22;62994;52.126;5.596;2023-06-26T11:21:32;30.50;99.90
17565;DHT22;62994;52.126;5.596;2023-06-26T11:24:25;30.60;99.90
17565;DHT22;62994;52.126;5.596;2023-06-26T11:27:06;30.60;99.90
17565;DHT22;62994;52.126;5.596;2023-06-26T11:29:54;30.60;99.90
17565;DHT22;62994;52.126;5.596;2023-06-26T11:32:46;30.70;99.90
17565;DHT22;62994;52.126;5.596;2023-06-26T11:36:00;30.70;99.90
17565;DHT22;62994;52.126;5.596;2023-06-26T11:38:59;30.60;99.90
17565;DHT22;62994;52.126;5.596;2023-06-26T11:41:51;30.50;99.90
17565;DHT22;62994;52.126;5.596;2023-06-26T11:44:41;30.50;99.90
17565;DHT22;62994;52.126;5.596;2023-06-26T11:47:21;30.50;99.70
17565;DHT22;62994;52.126;5.596;2023-06-26T11:50:01;30.40;99.40
17565;DHT22;62994;52.126;5.596;2023-06-26T11:52:56;30.40;99.60
17565;DHT22;62994;52.126;5.596;2023-06-26T11:55:41;30.40;99.90
17565;DHT22;62994;52.126;5.596;2023-06-26T11:58:35;30.40;99.90
17565;DHT22;62994;52.126;5.596;2023-06-26T12:01:12;30.30;99.50
17565;DHT22;62994;52.126;5.596;2023-06-26T12:03:59;30.40;99.90
17565;DHT22;62994;52.126;5.596;2023-06-26T12:06:52;30.50;99.70
17565;DHT22;62994;52.126;5.596;2023-06-26T12:09:38;30.40;99.50
17565;DHT22;62994;52.126;5.596;2023-06-26T12:12:17;30.50;99.20
17565;DHT22;62994;52.126;5.596;2023-06-26T12:14:50;30.50;98.70
17565;DHT22;62994;52.126;5.596;2023-06-26T12:17:22;30.60;97.30
17565;DHT22;62994;52.126;5.596;2023-06-26T12:20:02;30.60;97.10
17565;DHT22;62994;52.126;5.596;2023-06-26T12:22:42;30.70;97.30
17565;DHT22;62994;52.126;5.596;2023-06-26T12:25:42;30.90;97.50
17565;DHT22;62994;52.126;5.596;2023-06-26T12:28:39;31.00;97.20
17565;DHT22;62994;52.126;5.596;2023-06-26T12:31:29;31.20;98.20
17565;DHT22;62994;52.126;5.596;2023-06-26T12:34:14;31.10;95.50
17565;DHT22;62994;52.126;5.596;2023-06-26T12:36:50;31.10;96.40
17565;DHT22;62994;52.126;5.596;2023-06-26T12:39:51;31.10;96.70
17565;DHT22;62994;52.126;5.596;2023-06-26T12:42:39;31.10;96.10
17565;DHT22;62994;52.126;5.596;2023-06-26T12:45:20;30.90;95.10
17565;DHT22;62994;52.126;5.596;2023-06-26T12:47:58;30.80;96.00
17565;DHT22;62994;52.126;5.596;2023-06-26T12:50:57;30.90;95.90
17565;DHT22;62994;52.126;5.596;2023-06-26T12:53:43;31.00;96.80
17565;DHT22;62994;52.126;5.596;2023-06-26T12:56:16;31.00;96.40
17565;DHT22;62994;52.126;5.596;2023-06-26T12:58:54;31.00;96.10
17565;DHT22;62994;52.126;5.596;2023-06-26T13:01:27;31.00;94.90
17565;DHT22;62994;52.126;5.596;2023-06-26T13:04:02;31.20;95.30
17565;DHT22;62994;52.126;5.596;2023-06-26T13:06:42;31.30;95.40
17565;DHT22;62994;52.126;5.596;2023-06-26T13:09:33;31.40;95.80
17565;DHT22;62994;52.126;5.596;2023-06-26T13:12:15;31.50;95.00
17565;DHT22;62994;52.126;5.596;2023-06-26T13:15:14;31.50;94.40
17565;DHT22;62994;52.126;5.596;2023-06-26T13:18:37;31.70;95.60
17565;DHT22;62994;52.126;5.596;2023-06-26T13:20:52;31.80;96.00
17565;DHT22;62994;52.126;5.596;2023-06-26T13:23:55;32.00;94.80
17565;DHT22;62994;52.126;5.596;2023-06-26T13:26:23;32.10;94.40
17565;DHT22;62994;52.126;5.596;2023-06-26T13:29:08;32.20;93.80
17565;DHT22;62994;52.126;5.596;2023-06-26T13:31:39;32.30;93.50
17565;DHT22;62994;52.126;5.596;2023-06-26T13:34:27;32.20;94.00
17565;DHT22;62994;52.126;5.596;2023-06-26T13:36:57;32.20;92.80
17565;DHT22;62994;52.126;5.596;2023-06-26T13:39:32;32.20;93.20
17565;DHT22;62994;52.126;5.596;2023-06-26T13:41:59;32.30;94.00
17565;DHT22;62994;52.126;5.596;2023-06-26T13:45:07;32.40;93.50
17565;DHT22;62994;52.126;5.596;2023-06-26T13:47:44;32.50;92.80
17565;DHT22;62994;52.126;5.596;2023-06-26T13:50:25;32.20;93.20
17565;DHT22;62994;52.126;5.596;2023-06-26T13:52:54;32.20;93.60
17565;DHT22;62994;52.126;5.596;2023-06-26T13:55:25;32.40;93.90
17565;DHT22;62994;52.126;5.596;2023-06-26T13:57:57;32.20;93.70
17565;DHT22;62994;52.126;5.596;2023-06-26T14:00:28;32.20;93.60
17565;DHT22;62994;52.126;5.596;2023-06-26T14:03:10;32.20;94.00
17565;DHT22;62994;52.126;5.596;2023-06-26T14:05:46;32.20;94.00
17565;DHT22;62994;52.126;5.596;2023-06-26T14:08:14;32.30;94.00
17565;DHT22;62994;52.126;5.596;2023-06-26T14:10:41;32.30;94.30
17565;DHT22;62994;52.126;5.596;2023-06-26T14:13:16;32.30;94.20
17565;DHT22;62994;52.126;5.596;2023-06-26T14:15:51;32.30;93.80
17565;DHT22;62994;52.126;5.596;2023-06-26T14:18:22;32.10;93.70
17565;DHT22;62994;52.126;5.596;2023-06-26T14:20:56;32.00;93.10
17565;DHT22;62994;52.126;5.596;2023-06-26T14:23:43;32.00;93.70
17565;DHT22;62994;52.126;5.596;2023-06-26T14:26:16;32.00;94.00
17565;DHT22;62994;52.126;5.596;2023-06-26T14:28:58;32.10;93.80
17565;DHT22;62994;52.126;5.596;2023-06-26T14:31:49;32.20;94.20
17565;DHT22;62994;52.126;5.596;2023-06-26T14:34:17;32.10;93.00
17565;DHT22;62994;52.126;5.596;2023-06-26T14:37:28;32.00;93.00
17565;DHT22;62994;52.126;5.596;2023-06-26T14:40:00;32.00;93.70
17565;DHT22;62994;52.126;5.596;2023-06-26T14:42:27;32.10;93.80
17565;DHT22;62994;52.126;5.596;2023-06-26T14:45:10;31.90;93.80
17565;DHT22;62994;52.126;5.596;2023-06-26T14:47:39;32.10;93.10
17565;DHT22;62994;52.126;5.596;2023-06-26T14:50:13;32.00;93.50
17565;DHT22;62994;52.126;5.596;2023-06-26T14:52:48;32.10;93.40
17565;DHT22;62994;52.126;5.596;2023-06-26T14:55:30;32.00;92.70
17565;DHT22;62994;52.126;5.596;2023-06-26T14:58:08;31.90;92.90
17565;DHT22;62994;52.126;5.596;2023-06-26T15:00:35;31.90;92.60
17565;DHT22;62994;52.126;5.596;2023-06-26T15:03:16;31.80;92.50
17565;DHT22;62994;52.126;5.596;2023-06-26T15:05:46;31.80;92.40
17565;DHT22;62994;52.126;5.596;2023-06-26T15:08:25;31.70;92.50
17565;DHT22;62994;52.126;5.596;2023-06-26T15:11:13;31.50;93.00
17565;DHT22;62994;52.126;5.596;2023-06-26T15:13:46;31.50;92.60
17565;DHT22;62994;52.126;5.596;2023-06-26T15:16:30;31.50;92.90
17565;DHT22;62994;52.126;5.596;2023-06-26T15:20:41;31.30;92.60
17565;DHT22;62994;52.126;5.596;2023-06-26T15:22:05;31.20;93.30
17565;DHT22;62994;52.126;5.596;2023-06-26T15:24:57;31.30;94.10
17565;DHT22;62994;52.126;5.596;2023-06-26T15:27:30;31.10;93.20
17565;DHT22;62994;52.126;5.596;2023-06-26T15:30:20;31.00;93.10
17565;DHT22;62994;52.126;5.596;2023-06-26T15:33:35;30.90;93.40
17565;DHT22;62994;52.126;5.596;2023-06-26T15:35:59;31.00;93.60
17565;DHT22;62994;52.126;5.596;2023-06-26T15:38:54;31.20;93.80
17565;DHT22;62994;52.126;5.596;2023-06-26T15:41:23;31.20;94.30
17565;DHT22;62994;52.126;5.596;2023-06-26T15:47:40;31.10;93.70
17565;DHT22;62994;52.126;5.596;2023-06-26T15:50:55;31.20;92.90
17565;DHT22;62994;52.126;5.596;2023-06-26T15:53:36;31.30;92.90
17565;DHT22;62994;52.126;5.596;2023-06-26T15:56:21;31.30;92.90
17565;DHT22;62994;52.126;5.596;2023-06-26T15:59:01;31.40;93.30
17565;DHT22;62994;52.126;5.596;2023-06-26T16:01:36;31.50;93.10
17565;DHT22;62994;52.126;5.596;2023-06-26T16:04:40;31.60;92.90
17565;DHT22;62994;52.126;5.596;2023-06-26T16:07:16;31.80;93.00
17565;DHT22;62994;52.126;5.596;2023-06-26T16:10:05;31.70;92.40
17565;DHT22;62994;52.126;5.596;2023-06-26T16:12:38;31.50;92.60
17565;DHT22;62994;52.126;5.596;2023-06-26T16:15:08;31.60;92.50
17565;DHT22;62994;52.126;5.596;2023-06-26T16:17:47;31.70;92.60
17565;DHT22;62994;52.126;5.596;2023-06-26T16:20:25;31.60;92.40
17565;DHT22;62994;52.126;5.596;2023-06-26T16:23:14;31.40;91.80
17565;DHT22;62994;52.126;5.596;2023-06-26T16:25:58;31.00;91.20
17565;DHT22;62994;52.126;5.596;2023-06-26T16:28:32;31.00;92.40
17565;DHT22;62994;52.126;5.596;2023-06-26T16:31:23;30.60;91.70